createdAt,value
2022-10-19T00:02:17.682Z,9.00
2022-10-19T00:04:44.684Z,9.00
2022-10-19T00:07:11.429Z,9.00
2022-10-19T00:09:38.162Z,9.00
2022-10-19T00:12:04.931Z,8.90
2022-10-19T00:14:31.721Z,9.00
2022-10-19T00:16:58.509Z,8.90
2022-10-19T00:19:26.248Z,8.90
2022-10-19T00:21:53.167Z,8.90
2022-10-19T00:24:20.283Z,8.90
2022-10-19T00:26:47.352Z,8.90
2022-10-19T00:29:14.733Z,8.90
2022-10-19T00:31:41.585Z,8.90
2022-10-19T00:34:08.633Z,8.90
2022-10-19T00:36:37.492Z,8.90
2022-10-19T00:39:04.833Z,8.90
2022-10-19T00:41:32.915Z,8.90
2022-10-19T00:44:07.975Z,9.00
2022-10-19T00:46:36.501Z,9.00
2022-10-19T00:49:09.826Z,9.00
2022-10-19T00:51:39.580Z,9.00
2022-10-19T00:54:06.770Z,9.00
2022-10-19T00:56:34.041Z,9.00
2022-10-19T00:59:02.677Z,9.00
2022-10-19T01:01:29.799Z,9.10
2022-10-19T01:03:56.831Z,9.00
2022-10-19T01:06:23.687Z,9.00
2022-10-19T01:08:50.476Z,9.00
2022-10-19T01:11:17.161Z,9.00
2022-10-19T01:13:46.992Z,8.90
2022-10-19T01:16:25.048Z,8.90
2022-10-19T01:18:59.659Z,8.90
2022-10-19T01:21:30.175Z,8.90
2022-10-19T01:24:19.996Z,8.80
2022-10-19T01:27:04.790Z,8.80
2022-10-19T01:29:50.122Z,8.70
2022-10-19T01:32:21.999Z,8.70
2022-10-19T01:34:57.535Z,8.70
2022-10-19T01:37:24.210Z,8.70
2022-10-19T01:39:53.743Z,8.60
2022-10-19T01:42:20.475Z,8.60
2022-10-19T01:44:52.018Z,8.60
2022-10-19T01:47:20.538Z,8.50
2022-10-19T01:49:49.955Z,8.50
2022-10-19T01:52:18.722Z,8.40
2022-10-19T01:54:47.810Z,8.40
2022-10-19T01:57:17.907Z,8.40
2022-10-19T01:59:45.335Z,8.40
2022-10-19T02:02:13.248Z,8.40
2022-10-19T02:04:40.903Z,8.40
2022-10-19T02:07:08.234Z,8.30
2022-10-19T02:09:35.553Z,8.30
2022-10-19T02:12:05.057Z,8.30
2022-10-19T02:14:36.657Z,8.30
2022-10-19T02:17:09.371Z,8.30
2022-10-19T02:19:36.304Z,8.20
2022-10-19T02:22:03.080Z,8.20
2022-10-19T02:24:29.876Z,8.30
2022-10-19T02:26:56.644Z,8.20
2022-10-19T02:29:23.474Z,8.20
2022-10-19T02:31:50.264Z,8.20
2022-10-19T02:34:17.125Z,8.20
2022-10-19T02:36:43.894Z,8.20
2022-10-19T02:39:10.785Z,8.10
2022-10-19T02:41:39.539Z,8.20
2022-10-19T02:44:11.735Z,8.10
2022-10-19T02:46:43.778Z,8.10
2022-10-19T02:49:11.861Z,8.00
2022-10-19T02:51:40.326Z,8.00
2022-10-19T02:54:07.866Z,8.00
2022-10-19T02:56:35.152Z,8.00
2022-10-19T02:59:02.393Z,7.90
2022-10-19T03:01:29.131Z,7.90
2022-10-19T03:03:55.974Z,7.90
2022-10-19T03:06:22.729Z,7.90
2022-10-19T03:08:49.452Z,7.90
2022-10-19T03:11:16.168Z,7.90
2022-10-19T03:13:43.435Z,7.90
2022-10-19T03:16:11.496Z,7.90
2022-10-19T03:18:38.287Z,7.90
2022-10-19T03:21:06.783Z,7.90
2022-10-19T03:23:33.662Z,7.90
2022-10-19T03:26:00.369Z,7.90
2022-10-19T03:28:27.143Z,7.90
2022-10-19T03:30:54.011Z,7.80
2022-10-19T03:33:20.843Z,7.80
2022-10-19T03:35:47.675Z,7.80
2022-10-19T03:38:14.422Z,7.70
2022-10-19T03:40:41.165Z,7.80
2022-10-19T03:43:08.122Z,7.70
2022-10-19T03:45:34.865Z,7.70
2022-10-19T03:48:01.622Z,7.70
2022-10-19T03:50:28.427Z,7.70
2022-10-19T03:52:55.319Z,7.60
2022-10-19T03:55:22.189Z,7.60
2022-10-19T03:57:49.027Z,7.60
2022-10-19T04:00:16.070Z,7.60
2022-10-19T04:02:42.781Z,7.70
2022-10-19T04:05:09.561Z,7.70
2022-10-19T04:07:36.424Z,7.60
2022-10-19T04:10:03.607Z,7.70
2022-10-19T04:12:30.445Z,7.70
2022-10-19T04:14:57.904Z,7.60
2022-10-19T04:17:25.277Z,7.60
2022-10-19T04:19:52.027Z,7.60
2022-10-19T04:22:18.773Z,7.60
2022-10-19T04:24:45.490Z,7.60
2022-10-19T04:27:12.459Z,7.60
2022-10-19T04:29:39.460Z,7.60
2022-10-19T04:32:06.340Z,7.60
2022-10-19T04:34:35.244Z,7.60
2022-10-19T04:37:04.507Z,7.50
2022-10-19T04:39:31.213Z,7.60
2022-10-19T04:41:58.004Z,7.60
2022-10-19T04:44:24.825Z,7.60
2022-10-19T04:46:51.636Z,7.60
2022-10-19T04:49:20.254Z,7.70
2022-10-19T04:51:47.120Z,7.70
2022-10-19T04:54:13.986Z,7.60
2022-10-19T04:56:40.705Z,7.60
2022-10-19T04:59:07.643Z,7.60
2022-10-19T05:01:34.416Z,7.60
2022-10-19T05:04:02.163Z,7.60
2022-10-19T05:06:30.238Z,7.60
2022-10-19T05:08:57.309Z,7.50
2022-10-19T05:11:24.103Z,7.60
2022-10-19T05:13:50.947Z,7.50
2022-10-19T05:16:19.038Z,7.60
2022-10-19T05:18:50.009Z,7.60
2022-10-19T05:21:17.791Z,7.60
2022-10-19T05:23:44.588Z,7.60
2022-10-19T05:26:12.722Z,7.60
2022-10-19T05:28:39.761Z,7.60
2022-10-19T05:31:08.061Z,7.60
2022-10-19T05:33:34.852Z,7.60
2022-10-19T05:36:10.145Z,7.60
2022-10-19T05:38:36.835Z,7.60
2022-10-19T05:41:03.616Z,7.60
2022-10-19T05:43:30.400Z,7.60
2022-10-19T05:45:57.112Z,7.70
2022-10-19T05:48:24.046Z,7.70
2022-10-19T05:50:54.420Z,7.70
2022-10-19T05:53:21.271Z,7.70
2022-10-19T05:55:47.979Z,7.70
2022-10-19T05:58:14.774Z,7.60
2022-10-19T06:00:41.499Z,7.60
2022-10-19T06:03:08.236Z,7.60
2022-10-19T06:05:38.031Z,7.70
2022-10-19T06:08:04.882Z,7.70
2022-10-19T06:10:31.673Z,7.60
2022-10-19T06:12:58.389Z,7.60
2022-10-19T06:15:25.117Z,7.60
2022-10-19T06:17:51.893Z,7.60
2022-10-19T06:20:18.715Z,7.60
2022-10-19T06:22:45.473Z,7.60
2022-10-19T06:25:13.176Z,7.60
2022-10-19T06:27:42.167Z,7.60
2022-10-19T06:30:09.206Z,7.50
2022-10-19T06:32:35.940Z,7.60
2022-10-19T06:35:02.691Z,7.50
2022-10-19T06:37:29.397Z,7.60
2022-10-19T06:39:56.160Z,7.50
2022-10-19T06:42:22.947Z,7.60
2022-10-19T06:44:49.680Z,7.50
2022-10-19T06:47:16.513Z,7.50
2022-10-19T06:49:43.602Z,7.50
2022-10-19T06:52:10.313Z,7.60
2022-10-19T06:54:37.041Z,7.60
2022-10-19T06:57:03.827Z,7.50
2022-10-19T06:59:30.544Z,7.60
2022-10-19T07:01:57.249Z,7.60
2022-10-19T07:04:24.044Z,7.60
2022-10-19T07:06:50.753Z,7.50
2022-10-19T07:09:19.001Z,7.60
2022-10-19T07:11:46.327Z,7.60
2022-10-19T07:14:13.119Z,7.60
2022-10-19T07:16:40.034Z,7.60
2022-10-19T07:19:06.831Z,7.60
2022-10-19T07:21:33.933Z,7.70
2022-10-19T07:24:00.634Z,7.60
2022-10-19T07:26:29.402Z,7.70
2022-10-19T07:28:57.075Z,7.70
2022-10-19T07:31:24.657Z,7.70
2022-10-19T07:33:52.671Z,7.80
2022-10-19T07:36:19.424Z,7.80
2022-10-19T07:38:46.180Z,7.80
2022-10-19T07:41:16.756Z,7.80
2022-10-19T07:43:44.461Z,7.80
2022-10-19T07:46:12.725Z,7.80
2022-10-19T07:48:39.506Z,7.80
2022-10-19T07:51:07.319Z,7.90
2022-10-19T07:53:34.631Z,7.90
2022-10-19T07:56:08.831Z,7.90
2022-10-19T07:58:36.509Z,7.90
2022-10-19T08:01:07.780Z,7.90
2022-10-19T08:06:21.804Z,7.90
2022-10-19T08:08:49.111Z,7.90
2022-10-19T08:11:17.575Z,7.90
2022-10-19T08:13:44.693Z,7.90
2022-10-19T08:16:21.843Z,7.90
2022-10-19T08:18:49.858Z,7.90
2022-10-19T08:21:16.862Z,7.80
2022-10-19T08:23:43.655Z,7.90
2022-10-19T08:26:10.418Z,7.90
2022-10-19T08:28:37.126Z,7.90
2022-10-19T08:31:10.815Z,7.90
2022-10-19T08:33:37.653Z,7.90
2022-10-19T08:36:05.199Z,8.00
2022-10-19T08:38:31.909Z,7.90
2022-10-19T08:41:03.471Z,7.90
2022-10-19T08:43:34.347Z,8.00
2022-10-19T08:46:07.115Z,8.10
2022-10-19T08:48:36.963Z,8.10
2022-10-19T08:51:05.585Z,8.10
2022-10-19T08:53:51.025Z,8.20
2022-10-19T08:56:38.895Z,8.20
2022-10-19T08:59:26.358Z,8.20
2022-10-19T09:02:13.338Z,8.20
2022-10-19T09:04:41.801Z,8.20
2022-10-19T09:07:14.737Z,8.30
2022-10-19T09:09:43.267Z,8.30
2022-10-19T09:12:12.774Z,8.30
2022-10-19T09:14:59.136Z,8.30
2022-10-19T09:17:25.976Z,8.20
2022-10-19T09:19:52.823Z,8.20
2022-10-19T09:22:20.756Z,8.20
2022-10-19T09:25:16.956Z,8.30
2022-10-19T09:27:45.819Z,8.30
2022-10-19T09:30:17.844Z,8.30
2022-10-19T09:32:44.746Z,8.40
2022-10-19T09:35:14.467Z,8.40
2022-10-19T09:37:44.779Z,8.40
2022-10-19T09:40:17.193Z,8.40
2022-10-19T09:42:43.964Z,8.40
2022-10-19T09:45:17.102Z,8.30
2022-10-19T09:47:45.842Z,8.40
2022-10-19T09:50:23.023Z,8.40
2022-10-19T09:52:51.141Z,8.50
2022-10-19T09:55:20.451Z,8.50
2022-10-19T09:57:48.397Z,8.60
2022-10-19T10:00:18.573Z,8.60
2022-10-19T10:02:55.808Z,8.60
2022-10-19T10:05:36.733Z,8.60
2022-10-19T10:08:05.265Z,8.70
2022-10-19T10:10:38.971Z,8.70
2022-10-19T10:13:05.854Z,8.60
2022-10-19T10:15:41.299Z,8.60
2022-10-19T10:18:11.606Z,8.60
2022-10-19T10:20:40.382Z,8.50
2022-10-19T10:23:07.176Z,8.60
2022-10-19T10:25:35.101Z,8.70
2022-10-19T10:28:04.299Z,8.70
2022-10-19T10:30:33.736Z,8.70
2022-10-19T10:33:09.281Z,8.80
2022-10-19T10:35:47.612Z,8.80
2022-10-19T10:38:16.985Z,8.90
2022-10-19T10:40:51.324Z,9.00
2022-10-19T10:43:19.964Z,9.00
2022-10-19T10:45:47.791Z,9.00
2022-10-19T10:48:44.019Z,9.00
2022-10-19T10:51:33.249Z,9.00
2022-10-19T10:54:08.985Z,9.00
2022-10-19T10:56:40.286Z,8.90
2022-10-19T10:59:21.830Z,8.90
2022-10-19T11:01:54.581Z,8.80
2022-10-19T11:04:23.875Z,8.70
2022-10-19T11:06:55.719Z,8.70
2022-10-19T11:09:26.168Z,8.80
2022-10-19T11:11:56.073Z,8.80
2022-10-19T11:14:30.477Z,8.90
2022-10-19T11:16:59.099Z,8.80
2022-10-19T11:19:55.463Z,8.80
2022-10-19T11:22:40.960Z,8.90
2022-10-19T11:25:26.276Z,8.80
2022-10-19T11:27:52.985Z,8.80
2022-10-19T11:30:19.813Z,8.90
2022-10-19T11:32:52.766Z,9.00
2022-10-19T11:35:25.509Z,9.00
2022-10-19T11:38:18.778Z,9.00
2022-10-19T11:41:22.335Z,9.10
2022-10-19T11:43:58.938Z,9.10
2022-10-19T11:46:31.386Z,9.10
2022-10-19T11:49:01.157Z,9.00
2022-10-19T11:51:27.904Z,8.90
2022-10-19T11:54:14.842Z,8.80
2022-10-19T11:57:03.266Z,8.80
2022-10-19T11:59:37.820Z,8.70
2022-10-19T12:02:19.731Z,8.70
2022-10-19T12:04:52.227Z,8.70
2022-10-19T12:07:24.664Z,8.80
2022-10-19T12:10:11.668Z,8.90
2022-10-19T12:12:44.066Z,8.90
2022-10-19T12:15:10.864Z,8.80
2022-10-19T12:17:38.535Z,8.70
2022-10-19T12:20:20.638Z,8.70
2022-10-19T12:22:48.298Z,8.70
2022-10-19T12:25:16.677Z,8.60
2022-10-19T12:27:46.643Z,8.70
2022-10-19T12:30:13.442Z,8.70
2022-10-19T12:32:50.777Z,8.80
2022-10-19T12:35:31.877Z,8.80
2022-10-19T12:38:03.633Z,8.80
2022-10-19T12:40:36.512Z,8.80
2022-10-19T12:43:08.257Z,8.70
2022-10-19T12:45:47.760Z,8.70
2022-10-19T12:48:15.696Z,8.70
2022-10-19T12:50:48.499Z,8.70
2022-10-19T12:53:28.179Z,8.70
2022-10-19T12:56:01.999Z,8.70
2022-10-19T12:58:33.497Z,8.70
2022-10-19T13:01:01.650Z,8.80
2022-10-19T13:03:33.446Z,8.90
2022-10-19T13:06:02.118Z,8.90
2022-10-19T13:08:42.176Z,9.00
2022-10-19T13:11:14.561Z,9.00
2022-10-19T13:13:52.160Z,9.00
2022-10-19T13:16:40.211Z,8.90
2022-10-19T13:19:13.016Z,8.80
2022-10-19T13:21:58.332Z,8.90
2022-10-19T13:24:25.103Z,9.00
2022-10-19T13:27:03.950Z,8.90
2022-10-19T13:29:42.906Z,8.80
2022-10-19T13:32:28.087Z,8.80
2022-10-19T13:34:55.068Z,8.80
2022-10-19T13:37:21.896Z,8.80
2022-10-19T13:39:49.270Z,8.80
2022-10-19T13:42:23.593Z,8.80
2022-10-19T13:44:52.980Z,8.70
2022-10-19T13:47:34.281Z,8.70
2022-10-19T13:50:15.154Z,8.70
2022-10-19T13:52:59.839Z,8.70
2022-10-19T13:55:27.876Z,8.70
2022-10-19T13:58:17.835Z,8.60
2022-10-19T14:00:47.573Z,8.60
2022-10-19T14:03:23.940Z,8.60
2022-10-19T14:05:56.677Z,8.60
2022-10-19T14:08:55.953Z,8.60
2022-10-19T14:11:28.230Z,8.50
2022-10-19T14:14:27.178Z,8.60
2022-10-19T14:16:58.295Z,8.60
2022-10-19T14:19:29.851Z,8.60
2022-10-19T14:21:57.975Z,8.70
2022-10-19T14:24:35.006Z,8.70
2022-10-19T14:27:03.442Z,8.70
2022-10-19T14:29:31.149Z,8.80
2022-10-19T14:31:58.884Z,8.80
2022-10-19T14:34:25.705Z,8.80
2022-10-19T14:36:52.465Z,8.80
2022-10-19T14:39:23.417Z,8.80
2022-10-19T14:41:53.170Z,8.80
2022-10-19T14:44:27.709Z,8.90
2022-10-19T14:46:54.511Z,8.90
2022-10-19T14:49:21.282Z,8.90
2022-10-19T14:51:54.075Z,8.90
2022-10-19T14:54:26.305Z,8.90
2022-10-19T14:56:55.981Z,8.90
2022-10-19T14:59:31.728Z,8.80
2022-10-19T15:02:00.397Z,8.80
2022-10-19T15:04:32.632Z,8.70
2022-10-19T15:07:01.236Z,8.60
2022-10-19T15:09:37.349Z,8.50
2022-10-19T15:12:08.687Z,8.40
2022-10-19T15:14:37.069Z,8.40
2022-10-19T15:17:05.842Z,8.50
2022-10-19T15:19:38.585Z,8.40
2022-10-19T15:22:14.367Z,8.50
2022-10-19T15:24:55.548Z,8.40
2022-10-19T15:27:28.379Z,8.40
2022-10-19T15:29:56.192Z,8.30
2022-10-19T15:32:24.454Z,8.30
2022-10-19T15:34:51.310Z,8.30
2022-10-19T15:37:20.174Z,8.30
2022-10-19T15:39:47.163Z,8.30
2022-10-19T15:42:45.511Z,8.20
2022-10-19T15:45:27.755Z,8.20
2022-10-19T15:48:09.681Z,8.30
2022-10-19T15:50:55.269Z,8.30
2022-10-19T15:53:22.481Z,8.30
2022-10-19T15:55:49.269Z,8.30
2022-10-19T15:58:16.201Z,8.30
2022-10-19T16:00:42.999Z,8.30
2022-10-19T16:03:09.993Z,8.30
2022-10-19T16:05:36.984Z,8.30
2022-10-19T16:08:03.981Z,8.30
2022-10-19T16:10:30.742Z,8.30
2022-10-19T16:12:57.498Z,8.30
2022-10-19T16:15:24.274Z,8.30
2022-10-19T16:17:52.649Z,8.40
2022-10-19T16:20:19.965Z,8.40
2022-10-19T16:22:47.368Z,8.40
2022-10-19T16:25:14.448Z,8.40
2022-10-19T16:27:41.203Z,8.30
2022-10-19T16:30:08.619Z,8.40
2022-10-19T16:32:35.480Z,8.30
2022-10-19T16:35:02.275Z,8.30
2022-10-19T16:37:29.020Z,8.40
2022-10-19T16:39:55.720Z,8.40
2022-10-19T16:42:24.643Z,8.40
2022-10-19T16:44:54.451Z,8.40
2022-10-19T16:47:21.228Z,8.40
2022-10-19T16:49:47.946Z,8.40
2022-10-19T16:52:14.815Z,8.40
2022-10-19T16:54:41.540Z,8.50
2022-10-19T16:57:09.961Z,8.50
2022-10-19T16:59:36.874Z,8.50
2022-10-19T17:02:03.598Z,8.40
2022-10-19T17:04:30.330Z,8.50
2022-10-19T17:06:57.686Z,8.40
2022-10-19T17:12:12.439Z,8.50
2022-10-19T17:14:40.350Z,8.50
2022-10-19T17:17:07.225Z,8.50
2022-10-19T17:19:34.253Z,8.50
2022-10-19T17:22:02.875Z,8.40
2022-10-19T17:24:29.988Z,8.50
2022-10-19T17:26:56.742Z,8.50
2022-10-19T17:29:23.513Z,8.50
2022-10-19T17:31:50.343Z,8.50
2022-10-19T17:34:17.801Z,8.50
2022-10-19T17:36:46.998Z,8.50
2022-10-19T17:39:32.088Z,8.50
2022-10-19T17:42:01.863Z,8.50
2022-10-19T17:44:30.004Z,8.40
2022-10-19T17:46:56.721Z,8.40
2022-10-19T17:49:23.541Z,8.40
2022-10-19T17:51:51.790Z,8.40
2022-10-19T17:54:18.589Z,8.40
2022-10-19T17:56:45.767Z,8.40
2022-10-19T17:59:12.993Z,8.40
2022-10-19T18:01:39.837Z,8.40
2022-10-19T18:04:06.914Z,8.40
2022-10-19T18:06:35.048Z,8.50
2022-10-19T18:09:02.962Z,8.50
2022-10-19T18:11:31.420Z,8.50
2022-10-19T18:13:59.418Z,8.50
2022-10-19T18:16:28.005Z,8.50
2022-10-19T18:18:56.027Z,8.50
2022-10-19T18:21:24.813Z,8.50
2022-10-19T18:23:53.341Z,8.50
2022-10-19T18:26:22.233Z,8.50
2022-10-19T18:28:50.198Z,8.50
2022-10-19T18:31:21.374Z,8.50
2022-10-19T18:33:49.495Z,8.50
2022-10-19T18:36:16.211Z,8.50
2022-10-19T18:38:42.962Z,8.50
2022-10-19T18:43:49.803Z,8.50
2022-10-19T18:46:18.202Z,8.50
2022-10-19T18:48:45.021Z,8.50
2022-10-19T18:51:11.753Z,8.50
2022-10-19T18:53:38.476Z,8.50
2022-10-19T18:56:06.582Z,8.50
2022-10-19T18:58:33.863Z,8.50
2022-10-19T19:01:11.306Z,8.50
2022-10-19T19:03:39.149Z,8.40
2022-10-19T19:06:07.062Z,8.50
2022-10-19T19:08:34.081Z,8.40
2022-10-19T19:11:21.208Z,8.40
2022-10-19T19:13:48.809Z,8.40
2022-10-19T19:16:15.623Z,8.40
2022-10-19T19:18:42.616Z,8.40
2022-10-19T19:21:19.668Z,8.40
2022-10-19T19:23:46.528Z,8.40
2022-10-19T19:26:13.560Z,8.30
2022-10-19T19:28:41.797Z,8.30
2022-10-19T19:31:10.701Z,8.30
2022-10-19T19:33:38.255Z,8.20
2022-10-19T19:36:06.398Z,8.20
2022-10-19T19:38:33.606Z,8.30
2022-10-19T19:41:03.214Z,8.20
2022-10-19T19:43:31.259Z,8.30
2022-10-19T19:46:00.914Z,8.20
2022-10-19T19:48:30.708Z,8.30
2022-10-19T19:50:57.437Z,8.30
2022-10-19T19:53:24.165Z,8.20
2022-10-19T19:55:50.938Z,8.30
2022-10-19T19:58:18.993Z,8.20
2022-10-19T20:00:46.323Z,8.20
2022-10-19T20:03:13.344Z,8.20
2022-10-19T20:05:40.407Z,8.20
2022-10-19T20:08:07.774Z,8.20
2022-10-19T20:10:37.878Z,8.30
2022-10-19T20:15:39.573Z,8.30
2022-10-19T20:18:06.643Z,8.30
2022-10-19T20:20:33.514Z,8.30
2022-10-19T20:23:00.468Z,8.30
2022-10-19T20:25:27.193Z,8.30
2022-10-19T20:27:54.225Z,8.40
2022-10-19T20:30:21.073Z,8.40
2022-10-19T20:32:47.857Z,8.40
2022-10-19T20:35:14.703Z,8.40
2022-10-19T20:37:41.684Z,8.30
2022-10-19T20:40:09.587Z,8.30
2022-10-19T20:42:36.721Z,8.40
2022-10-19T20:45:03.921Z,8.40
2022-10-19T20:47:30.751Z,8.40
2022-10-19T20:49:57.562Z,8.40
2022-10-19T20:52:24.345Z,8.40
2022-10-19T20:54:51.090Z,8.40
2022-10-19T20:57:17.848Z,8.40
2022-10-19T20:59:45.700Z,8.40
2022-10-19T21:02:12.485Z,8.40
2022-10-19T21:04:39.237Z,8.40
2022-10-19T21:07:05.948Z,8.40
2022-10-19T21:09:33.095Z,8.40
2022-10-19T21:12:01.288Z,8.40
2022-10-19T21:14:29.107Z,8.40
2022-10-19T21:16:59.185Z,8.50
2022-10-19T21:19:27.111Z,8.40
2022-10-19T21:21:58.004Z,8.50
2022-10-19T21:24:26.396Z,8.50
2022-10-19T21:26:53.480Z,8.50
2022-10-19T21:29:20.402Z,8.50
2022-10-19T21:31:49.118Z,8.50
2022-10-19T21:34:18.165Z,8.50
2022-10-19T21:36:44.911Z,8.50
2022-10-19T21:39:11.607Z,8.50
2022-10-19T21:41:38.519Z,8.50
2022-10-19T21:44:05.377Z,8.50
2022-10-19T21:46:32.164Z,8.50
2022-10-19T21:48:58.938Z,8.40
2022-10-19T21:51:36.207Z,8.40
2022-10-19T21:54:03.954Z,8.40
2022-10-19T21:56:31.063Z,8.40
2022-10-19T21:58:57.915Z,8.40
2022-10-19T22:01:26.177Z,8.40
2022-10-19T22:04:00.393Z,8.40
2022-10-19T22:06:27.969Z,8.40
2022-10-19T22:08:55.332Z,8.30
2022-10-19T22:11:22.887Z,8.30
2022-10-19T22:13:53.030Z,8.30
2022-10-19T22:16:20.417Z,8.20
2022-10-19T22:18:47.302Z,8.20
2022-10-19T22:21:15.319Z,8.10
2022-10-19T22:23:42.471Z,8.10
2022-10-19T22:26:13.134Z,8.10
2022-10-19T22:28:39.918Z,8.10
2022-10-19T22:31:06.672Z,8.10
2022-10-19T22:33:34.298Z,8.00
2022-10-19T22:36:01.341Z,8.00
2022-10-19T22:38:28.754Z,8.10
2022-10-19T22:41:14.386Z,8.00
2022-10-19T22:44:36.909Z,8.00
2022-10-19T22:47:04.849Z,8.10
2022-10-19T22:49:32.981Z,8.00
2022-10-19T22:51:59.732Z,8.00
2022-10-19T22:54:26.483Z,8.00
2022-10-19T22:56:53.550Z,8.00
2022-10-19T22:59:20.239Z,8.00
2022-10-19T23:01:47.004Z,8.10
2022-10-19T23:04:13.831Z,8.10
2022-10-19T23:06:40.881Z,8.00
2022-10-19T23:09:07.632Z,8.00
2022-10-19T23:11:34.352Z,8.00
2022-10-19T23:14:01.076Z,7.90
2022-10-19T23:18:59.454Z,7.90
2022-10-19T23:21:26.127Z,7.90
2022-10-19T23:23:53.355Z,7.90
2022-10-19T23:26:20.585Z,7.90
2022-10-19T23:28:48.994Z,7.90
2022-10-19T23:31:17.396Z,7.80
2022-10-19T23:33:44.319Z,7.90
2022-10-19T23:36:16.323Z,7.80
2022-10-19T23:38:43.885Z,7.80
2022-10-19T23:41:10.997Z,7.70
2022-10-19T23:43:37.828Z,7.80
2022-10-19T23:46:04.620Z,7.80
2022-10-19T23:48:31.408Z,7.80
2022-10-19T23:51:00.771Z,7.80
2022-10-19T23:53:28.210Z,7.70
2022-10-19T23:56:02.255Z,7.70
2022-10-19T23:58:29.203Z,7.70
